Sapelo Island, GA (31327)

11:51 PM EDT on September 02, 2015 (GMT -0400)
Glynco Jetport | | Change Station
CLOSE
Current Station
Airport
Location: Brunswick,
Elevation: 26 ft
Nearby Weather Stations

Elev 26 ft 31.26 °N, 81.47 °W | Updated 16 minutes ago

Thunderstorm
Thunderstorm
73 °F
Feels Like 73 °F
N
0
Wind Variable Wind from North

Today
High -- | Low -- °F
--% Chance of Precip.
Yesterday
High -- | Low -- °F
Precip. -- in
7:01 AM 7:47 PM
Waning Gibbous, 74% visible
Pressure 29.99 in
Visibility 10.0 miles
Clouds Scattered Clouds 2900 ft
Scattered Clouds 3400 ft
Scattered Clouds 4000 ft
Dew Point 73 °F
Humidity 100%
Rainfall 0.00 in
Snow Depth Not available.
UV 0 out of 12
Pollen 5.30 out of 12
Air Quality Not available.
Flu Activity Not available.
METAR KBQK 030335Z AUTO 00000KT 10SM VCTS SCT029 SCT034 SCT040 23/23 A2999 RMK AO1 LTG DSNT E AND SE
Pressure 29.99 in
Visibility 10.0 miles
Clouds Scattered Clouds 2900 ft
Scattered Clouds 3400 ft
Scattered Clouds 4000 ft
Dew Point 73 °F
Humidity 100%
Rainfall 0.00 in
Snow Depth Not available.
UV 0 out of 12
Pollen 5.30 out of 12
Air Quality Not available.
Flu Activity Not available.
METAR KBQK 030335Z AUTO 00000KT 10SM VCTS SCT029 SCT034 SCT040 23/23 A2999 RMK AO1 LTG DSNT E AND SE

10-Day Weather Forecast

×

Almanac

Astronomy

Sep. 02, 2015 Rise Set
Actual Time
Civil Twilight
Nautical Twilight
Astronomical Twilight
Moon
Length of Visible Light
Length of Day
Tomorrow will be .
, % of the Moon is Illuminated

Today's Extremes

State Highs State Lows

Community

WunderPhotos

Upload Photos

1,851,903 photos uploaded!

WunderBlogs® & News

Nearby

Air Quality

  Air Quality AQ Index Pollutant
Not available.

Snow Depth

Station Depth Elevation

Earthquake Activity

City Distance Mag. Time & Date
Minimum magnitude displayed is 2.5.

Coastal Water Temperatures

Place Temperature

Stations

Nearby Weather Stations

Station Location Temp. Windchill Dew Point Humidity Wind Precip. Elev Updated Type